Varney, Kentucky
Current Conditions -  °F | °C
As of 11:55 PM on Friday 28 Nov 2014 (Local Time) from KPBX Reporting Station
Clear Clear  
Wind Chill: 28°   Ceiling: Unl
Heat Index: 33°   Visibility: 10mi
Dew Point: 18°   Wind: 6mph
Humidity: 55%   Direction: 150°SSE
Pressure: 30.13"   Gusts: NA
Location:  37.64°N, 82.49°W
Report Text: KPBX 290455Z AUTO 15005KT 10SM CLR 01/M08 A3013 RMK AO2 T00061076 400181033
Loading
Personal Weather Stations






























Interactive Weather Map New forecast layout! Learn more

10-Day Weather Forecast

Advertisements
Track Severe Weather on mobile